Time;durP1;ratioP1;P1;durP2;ratioP2;P2;SDS_P1;SDS_P2;PMS_P1;PMS_P2;Temp;Humidity;BMP_temperature;BMP_pressure;BME280_temperature;BME280_humidity;BME280_pressure;Samples;Min_cycle;Max_cycle;Signal;HPM_P1;HPM_P2
2021/06/26 00:01:13;;;;;;;11.50;4.50;;;16.50;99.70;;;;;;5070495;28;20443;-64
2021/06/26 00:03:40;;;;;;;10.33;4.37;;;16.50;99.70;;;;;;5068828;28;20517;-64
2021/06/26 00:06:07;;;;;;;11.60;4.63;;;16.50;99.70;;;;;;5068933;28;20818;-64
2021/06/26 00:08:34;;;;;;;10.30;4.10;;;16.40;99.70;;;;;;5069354;28;20455;-64
2021/06/26 00:11:02;;;;;;;9.40;4.33;;;16.50;99.70;;;;;;5069227;28;20485;-64
2021/06/26 00:13:29;;;;;;;9.70;3.73;;;16.50;99.70;;;;;;5069117;28;20466;-64
2021/06/26 00:15:55;;;;;;;10.20;3.87;;;16.40;99.70;;;;;;5068858;28;20439;-64
2021/06/26 00:18:22;;;;;;;8.60;4.03;;;16.40;99.70;;;;;;5069280;28;20449;-64
2021/06/26 00:20:49;;;;;;;13.17;3.73;;;16.40;99.70;;;;;;5069247;28;20798;-64
2021/06/26 00:23:16;;;;;;;9.57;4.10;;;16.40;99.70;;;;;;5068798;28;20471;-64
2021/06/26 00:25:43;;;;;;;9.57;3.97;;;16.30;99.70;;;;;;5068667;28;20829;-64
2021/06/26 00:28:11;;;;;;;9.60;4.10;;;16.40;99.70;;;;;;5069075;28;20552;-64
2021/06/26 00:30:38;;;;;;;7.00;4.07;;;16.30;99.70;;;;;;5069153;28;20509;-64
2021/06/26 00:33:05;;;;;;;9.03;4.00;;;16.30;99.70;;;;;;5068921;28;20825;-64
2021/06/26 00:35:31;;;;;;;9.07;4.07;;;16.40;99.70;;;;;;5068601;28;20962;-64
2021/06/26 00:37:58;;;;;;;10.90;4.97;;;16.40;99.70;;;;;;5068843;28;20451;-64
2021/06/26 00:40:25;;;;;;;10.17;4.10;;;16.40;99.70;;;;;;5068849;28;20703;-64
2021/06/26 00:42:52;;;;;;;9.57;4.67;;;16.60;99.70;;;;;;5068821;28;20466;-64
2021/06/26 00:45:20;;;;;;;8.00;4.10;;;16.60;99.70;;;;;;5068541;28;20443;-64
2021/06/26 00:47:47;;;;;;;8.97;3.90;;;16.50;99.70;;;;;;5068736;28;20450;-64
2021/06/26 00:50:17;;;;;;;10.17;4.70;;;16.40;99.70;;;;;;5068652;28;20930;-64
2021/06/26 00:52:44;;;;;;;9.27;4.23;;;16.40;99.70;;;;;;5068591;28;20928;-64
2021/06/26 00:55:12;;;;;;;10.40;4.73;;;16.40;99.70;;;;;;5068365;28;20439;-64
2021/06/26 00:57:41;;;;;;;10.73;4.60;;;16.30;99.70;;;;;;5068914;28;20434;-64
2021/06/26 01:00:09;;;;;;;13.10;4.57;;;16.30;99.70;;;;;;5067325;28;20438;-64
2021/06/26 01:02:37;;;;;;;12.10;4.80;;;16.30;99.70;;;;;;5032380;28;1029030;-64
2021/06/26 01:05:04;;;;;;;12.60;4.97;;;16.30;99.70;;;;;;5069115;28;20196;-64
2021/06/26 01:07:31;;;;;;;8.80;4.47;;;16.30;99.70;;;;;;5069332;28;20439;-64
2021/06/26 01:09:58;;;;;;;11.17;4.33;;;16.40;99.70;;;;;;5069200;28;20470;-64
2021/06/26 01:12:25;;;;;;;9.87;4.23;;;16.40;99.70;;;;;;5069276;28;20466;-64
2021/06/26 01:14:52;;;;;;;9.90;4.20;;;16.30;99.70;;;;;;5068864;28;20607;-64
2021/06/26 01:17:19;;;;;;;7.63;3.30;;;16.40;99.70;;;;;;5069277;28;20454;-64
2021/06/26 01:19:47;;;;;;;9.40;4.20;;;16.50;99.70;;;;;;5069352;28;20442;-64
2021/06/26 01:22:19;;;;;;;10.00;4.37;;;16.40;99.70;;;;;;5068661;28;20841;-66
2021/06/26 01:24:47;;;;;;;11.10;4.33;;;16.40;99.70;;;;;;5069054;28;20451;-67
2021/06/26 01:27:15;;;;;;;10.80;4.20;;;16.40;99.70;;;;;;5069455;28;20450;-66
2021/06/26 01:29:47;;;;;;;8.07;3.50;;;16.40;99.70;;;;;;5069285;28;20949;-66
2021/06/26 01:32:14;;;;;;;9.90;4.60;;;16.40;99.70;;;;;;5069421;28;20483;-66
2021/06/26 01:34:40;;;;;;;10.30;4.13;;;16.40;99.70;;;;;;5069173;28;20446;-67
2021/06/26 01:37:07;;;;;;;8.80;3.93;;;16.40;99.70;;;;;;5069520;28;20446;-66
2021/06/26 01:39:34;;;;;;;10.70;4.50;;;16.40;99.70;;;;;;5069612;28;20442;-66
2021/06/26 01:42:02;;;;;;;10.40;4.63;;;16.30;99.70;;;;;;5069588;28;20459;-66
2021/06/26 01:44:29;;;;;;;9.77;4.67;;;16.30;99.70;;;;;;5071998;28;20443;-67
2021/06/26 01:46:56;;;;;;;6.30;3.27;;;16.30;99.70;;;;;;5070301;28;20573;-66
2021/06/26 01:49:22;;;;;;;9.67;3.97;;;16.30;99.70;;;;;;5069287;28;20449;-66
2021/06/26 01:51:49;;;;;;;9.40;4.47;;;16.30;99.70;;;;;;5068992;28;20972;-66
2021/06/26 01:54:16;;;;;;;7.53;3.80;;;16.30;99.70;;;;;;5068880;28;20962;-67
2021/06/26 01:56:43;;;;;;;11.80;4.37;;;16.30;99.70;;;;;;5068922;28;20443;-66
2021/06/26 01:59:11;;;;;;;8.50;4.07;;;16.30;99.70;;;;;;5069176;28;20450;-67
2021/06/26 02:01:38;;;;;;;7.30;3.73;;;16.30;99.70;;;;;;5068823;28;20439;-66
2021/06/26 02:04:05;;;;;;;9.73;4.50;;;16.30;99.70;;;;;;5068841;28;20443;-66
2021/06/26 02:06:32;;;;;;;10.80;3.67;;;16.30;99.70;;;;;;5068666;28;20438;-66
2021/06/26 02:08:59;;;;;;;7.50;3.60;;;16.40;99.70;;;;;;5069171;28;20442;-67
2021/06/26 02:11:25;;;;;;;9.13;4.43;;;16.30;99.70;;;;;;5070874;28;20478;-64
2021/06/26 02:13:52;;;;;;;8.87;4.33;;;16.20;99.70;;;;;;5072507;28;20442;-64
2021/06/26 02:16:20;;;;;;;10.97;3.73;;;16.30;99.70;;;;;;5071853;28;20443;-64
2021/06/26 02:18:47;;;;;;;10.03;4.60;;;16.20;99.70;;;;;;5072464;28;20454;-64
2021/06/26 02:21:13;;;;;;;13.93;5.13;;;16.20;99.70;;;;;;5072068;28;20450;-63
2021/06/26 02:23:40;;;;;;;10.63;4.00;;;16.20;99.70;;;;;;5071968;28;20463;-64
2021/06/26 02:26:07;;;;;;;9.87;4.33;;;16.20;99.70;;;;;;5071677;28;20446;-64
2021/06/26 02:28:34;;;;;;;9.00;4.37;;;16.20;99.70;;;;;;5072203;28;20443;-64
2021/06/26 02:31:00;;;;;;;10.10;4.50;;;16.20;99.70;;;;;;5071989;28;20858;-64
2021/06/26 02:33:28;;;;;;;10.23;4.60;;;16.20;99.70;;;;;;5071957;28;20486;-64
2021/06/26 02:35:55;;;;;;;9.00;4.07;;;16.20;99.70;;;;;;5071745;28;20439;-64
2021/06/26 02:38:22;;;;;;;9.80;4.80;;;16.20;99.70;;;;;;5072017;28;20449;-64
2021/06/26 02:40:49;;;;;;;9.20;4.13;;;16.20;99.70;;;;;;5072122;28;20440;-64
2021/06/26 02:43:16;;;;;;;12.00;5.53;;;16.20;99.70;;;;;;5071833;28;20469;-64
2021/06/26 02:45:42;;;;;;;9.47;3.80;;;16.10;99.70;;;;;;5071763;28;20451;-64
2021/06/26 02:48:09;;;;;;;8.97;4.77;;;16.10;99.70;;;;;;5071788;28;20451;-64
2021/06/26 02:50:37;;;;;;;9.40;4.07;;;16.00;99.70;;;;;;5072076;28;20756;-64
2021/06/26 02:53:04;;;;;;;12.37;4.40;;;15.90;99.70;;;;;;5071874;28;20845;-64
2021/06/26 02:55:30;;;;;;;9.47;4.20;;;15.80;99.70;;;;;;5071429;28;20472;-64
2021/06/26 02:57:57;;;;;;;7.40;4.37;;;15.70;99.70;;;;;;5071485;28;20822;-64
2021/06/26 03:00:25;;;;;;;9.27;4.43;;;15.70;99.70;;;;;;5071615;28;20516;-64
2021/06/26 03:02:52;;;;;;;12.20;4.60;;;15.70;99.70;;;;;;5070483;28;20471;-63
2021/06/26 03:05:19;;;;;;;9.90;4.13;;;15.80;99.70;;;;;;5071382;28;20470;-63
2021/06/26 03:07:50;;;;;;;8.60;3.93;;;15.70;99.70;;;;;;5071313;28;20446;-64
2021/06/26 03:10:17;;;;;;;10.00;3.93;;;15.70;99.70;;;;;;5071451;28;20447;-64
2021/06/26 03:12:44;;;;;;;8.93;4.43;;;15.70;99.70;;;;;;5070854;28;20482;-64
2021/06/26 03:15:12;;;;;;;7.10;4.10;;;15.70;99.70;;;;;;5070917;28;20451;-64
2021/06/26 03:17:38;;;;;;;9.90;4.60;;;15.70;99.70;;;;;;5070956;28;20450;-64
2021/06/26 03:20:08;;;;;;;10.13;4.17;;;15.70;99.70;;;;;;5071242;28;20458;-64
2021/06/26 03:22:34;;;;;;;9.70;4.73;;;15.70;99.70;;;;;;5069679;28;20458;-64
2021/06/26 03:25:03;;;;;;;10.20;4.43;;;15.70;99.70;;;;;;5070768;28;20450;-64
2021/06/26 03:27:30;;;;;;;9.13;3.60;;;15.70;99.70;;;;;;5070825;28;20454;-64
2021/06/26 03:29:57;;;;;;;13.60;4.77;;;15.60;99.70;;;;;;5071023;28;20963;-64
2021/06/26 03:32:23;;;;;;;10.33;4.17;;;15.60;99.70;;;;;;5070577;28;21041;-64
2021/06/26 03:34:50;;;;;;;9.27;4.40;;;15.60;99.70;;;;;;5070755;28;20463;-64
2021/06/26 03:37:17;;;;;;;12.93;4.20;;;15.60;99.70;;;;;;5070766;28;20495;-64
2021/06/26 03:39:43;;;;;;;10.57;4.50;;;15.50;99.70;;;;;;5070777;28;20447;-64
2021/06/26 03:42:12;;;;;;;9.60;4.07;;;15.50;99.70;;;;;;5070561;28;20458;-64
2021/06/26 03:44:38;;;;;;;10.53;4.80;;;15.50;99.70;;;;;;5070178;28;20447;-64
2021/06/26 03:47:06;;;;;;;8.57;4.60;;;15.50;99.70;;;;;;5070502;28;20454;-64
2021/06/26 03:49:35;;;;;;;9.27;4.47;;;15.40;99.70;;;;;;5070515;28;20450;-64
2021/06/26 03:52:02;;;;;;;11.90;5.10;;;15.40;99.70;;;;;;5070326;28;21041;-64
2021/06/26 03:54:29;;;;;;;9.67;4.43;;;15.40;99.70;;;;;;5069889;28;20454;-64
2021/06/26 03:56:55;;;;;;;8.37;4.10;;;15.40;99.70;;;;;;5070457;28;20454;-64
2021/06/26 03:59:23;;;;;;;10.13;4.00;;;15.40;99.70;;;;;;5070079;28;20446;-64
2021/06/26 04:01:51;;;;;;;9.17;3.63;;;15.40;99.70;;;;;;5070159;28;20501;-64
2021/06/26 04:04:19;;;;;;;11.40;3.80;;;15.40;99.70;;;;;;5069083;28;20443;-64
2021/06/26 04:06:46;;;;;;;9.37;4.10;;;15.30;99.70;;;;;;5070209;28;20451;-64
2021/06/26 04:09:13;;;;;;;12.17;4.20;;;15.40;99.70;;;;;;5071539;28;20807;-64
2021/06/26 04:11:39;;;;;;;10.87;4.20;;;15.50;99.70;;;;;;5069986;28;20523;-64
2021/06/26 04:14:06;;;;;;;11.30;4.13;;;15.50;99.70;;;;;;5069737;28;20446;-64
2021/06/26 04:16:34;;;;;;;12.57;4.57;;;15.50;99.70;;;;;;5070241;28;20450;-64
2021/06/26 04:19:01;;;;;;;11.00;4.80;;;15.50;99.70;;;;;;5069953;28;20443;-64
2021/06/26 04:21:28;;;;;;;11.30;4.70;;;15.50;99.70;;;;;;5069619;28;20447;-63
2021/06/26 04:23:55;;;;;;;5.90;3.83;;;15.60;99.70;;;;;;5069681;28;20541;-64
2021/06/26 04:26:21;;;;;;;11.60;4.87;;;15.60;99.70;;;;;;5069601;28;20438;-64
2021/06/26 04:28:48;;;;;;;17.00;4.93;;;15.70;99.70;;;;;;5069635;28;20477;-64
2021/06/26 04:31:15;;;;;;;10.83;4.07;;;15.80;99.70;;;;;;5069947;28;20535;-64
2021/06/26 04:33:43;;;;;;;7.60;3.60;;;15.90;99.70;;;;;;5069345;28;20516;-64
2021/06/26 04:36:13;;;;;;;10.93;4.77;;;16.00;99.70;;;;;;5069572;28;20804;-64
2021/06/26 04:38:39;;;;;;;7.73;4.27;;;16.10;99.70;;;;;;5069805;28;20474;-64
2021/06/26 04:41:06;;;;;;;15.23;5.73;;;16.10;99.70;;;;;;5069709;28;20569;-64
2021/06/26 04:43:33;;;;;;;13.20;5.40;;;16.10;99.70;;;;;;5069698;28;20466;-64
2021/06/26 04:46:00;;;;;;;11.23;4.70;;;16.10;99.70;;;;;;5069206;28;20496;-64
2021/06/26 04:48:28;;;;;;;13.30;5.13;;;16.20;99.70;;;;;;5069738;28;20446;-64
2021/06/26 04:50:56;;;;;;;11.47;5.00;;;16.30;99.70;;;;;;5069382;28;20939;-64
2021/06/26 04:53:23;;;;;;;11.30;4.27;;;16.40;99.70;;;;;;5069471;28;20451;-64
2021/06/26 04:55:52;;;;;;;10.73;5.10;;;16.40;99.70;;;;;;5068893;28;20449;-64
2021/06/26 04:58:19;;;;;;;13.23;5.33;;;16.50;99.70;;;;;;5069200;28;20476;-64
2021/06/26 05:00:49;;;;;;;13.97;5.77;;;16.50;99.70;;;;;;5069404;28;20537;-64
2021/06/26 05:03:16;;;;;;;12.30;4.47;;;16.50;99.70;;;;;;5068893;28;20531;-64
2021/06/26 05:05:43;;;;;;;15.40;5.20;;;16.50;99.70;;;;;;5068697;28;20453;-64
2021/06/26 05:08:11;;;;;;;12.80;5.37;;;16.60;99.70;;;;;;5069551;28;20446;-64
2021/06/26 05:10:37;;;;;;;10.83;4.73;;;16.60;99.70;;;;;;5069301;28;20939;-64
2021/06/26 05:13:04;;;;;;;12.57;4.60;;;16.70;99.70;;;;;;5069321;28;20913;-64
2021/06/26 05:15:31;;;;;;;11.17;5.80;;;16.80;99.70;;;;;;5068854;28;20450;-64
2021/06/26 05:17:58;;;;;;;12.30;5.10;;;16.80;99.70;;;;;;5069446;28;20876;-64
2021/06/26 05:20:25;;;;;;;9.20;4.40;;;16.80;99.70;;;;;;5069146;28;20446;-64
2021/06/26 05:22:51;;;;;;;9.97;5.10;;;16.80;99.70;;;;;;5069298;28;20461;-64
2021/06/26 05:25:19;;;;;;;13.13;5.50;;;16.80;99.70;;;;;;5068535;28;20560;-64
2021/06/26 05:27:46;;;;;;;11.10;4.67;;;16.90;99.70;;;;;;5068618;28;20442;-64
2021/06/26 05:30:14;;;;;;;9.87;4.17;;;16.90;99.70;;;;;;5068150;28;20450;-64
2021/06/26 05:32:41;;;;;;;11.10;4.77;;;16.80;99.70;;;;;;5068268;28;20843;-64
2021/06/26 05:35:08;;;;;;;11.30;4.60;;;16.90;99.70;;;;;;5068881;28;20443;-64
2021/06/26 05:37:35;;;;;;;9.87;4.67;;;17.00;99.70;;;;;;5069053;28;20480;-64
2021/06/26 05:40:02;;;;;;;12.47;5.37;;;17.10;99.70;;;;;;5069127;28;20812;-64
2021/06/26 05:42:30;;;;;;;8.93;4.23;;;17.20;99.70;;;;;;5068983;28;20967;-66
2021/06/26 05:44:56;;;;;;;12.30;5.07;;;17.40;99.70;;;;;;5069038;28;20450;-66
2021/06/26 05:47:23;;;;;;;11.50;5.17;;;17.60;99.70;;;;;;5072853;28;20451;-64
2021/06/26 05:49:50;;;;;;;11.60;5.30;;;17.80;99.70;;;;;;5072916;28;20442;-64
2021/06/26 05:52:16;;;;;;;11.63;4.37;;;17.90;99.70;;;;;;5072628;28;20482;-64
2021/06/26 05:54:43;;;;;;;11.77;4.63;;;18.00;99.70;;;;;;5072458;28;20442;-64
2021/06/26 05:57:10;;;;;;;10.63;4.73;;;18.20;99.70;;;;;;5072613;28;20443;-64
2021/06/26 05:59:38;;;;;;;10.70;5.10;;;18.20;99.70;;;;;;5072668;28;20469;-64
2021/06/26 06:02:10;;;;;;;12.70;4.60;;;18.30;99.70;;;;;;5072266;28;20471;-64
2021/06/26 06:04:36;;;;;;;9.83;4.67;;;18.50;99.70;;;;;;5071704;28;20457;-64
2021/06/26 06:07:03;;;;;;;11.10;4.30;;;18.50;99.70;;;;;;5069934;28;20469;-64
2021/06/26 06:09:30;;;;;;;12.33;5.47;;;18.70;99.70;;;;;;5072115;28;20865;-64
2021/06/26 06:11:56;;;;;;;9.93;4.97;;;18.80;99.70;;;;;;5072215;28;20997;-64
2021/06/26 06:14:23;;;;;;;10.33;4.43;;;18.90;99.70;;;;;;5071783;28;20473;-64
2021/06/26 06:16:51;;;;;;;10.90;4.73;;;18.90;99.70;;;;;;5072401;28;20447;-64
2021/06/26 06:19:18;;;;;;;12.77;4.87;;;18.80;99.70;;;;;;5072255;28;20802;-64
2021/06/26 06:21:45;;;;;;;8.93;4.40;;;18.90;99.70;;;;;;5070173;28;20486;-64
2021/06/26 06:24:11;;;;;;;10.17;4.97;;;19.20;99.70;;;;;;5070099;28;20466;-64
2021/06/26 06:26:38;;;;;;;10.47;4.80;;;19.60;99.70;;;;;;5057339;28;20515;-65
2021/06/26 06:29:05;;;;;;;10.60;4.20;;;20.00;99.70;;;;;;5051964;28;20452;-64
2021/06/26 06:31:32;;;;;;;11.27;4.97;;;20.00;99.70;;;;;;5051993;28;20773;-64
2021/06/26 06:34:00;;;;;;;11.40;4.47;;;20.40;99.70;;;;;;5052084;28;20505;-64
2021/06/26 06:36:27;;;;;;;9.47;4.40;;;20.30;99.70;;;;;;5051523;28;20459;-65
2021/06/26 06:38:54;;;;;;;12.97;5.50;;;20.90;99.70;;;;;;5051838;28;20455;-65
2021/06/26 06:41:20;;;;;;;10.43;4.57;;;21.10;99.70;;;;;;5051643;28;20447;-65
2021/06/26 06:43:47;;;;;;;11.00;5.20;;;21.10;99.70;;;;;;5051609;28;20467;-65
2021/06/26 06:46:14;;;;;;;9.47;4.80;;;20.70;99.70;;;;;;5051294;28;20439;-65
2021/06/26 06:48:40;;;;;;;12.60;5.10;;;21.30;99.70;;;;;;5051667;28;20435;-65
2021/06/26 06:51:08;;;;;;;7.90;4.30;;;21.40;99.70;;;;;;5051559;28;20447;-65
2021/06/26 06:53:35;;;;;;;10.40;4.47;;;21.30;99.70;;;;;;5051398;28;20486;-66
2021/06/26 06:56:02;;;;;;;9.30;4.40;;;21.40;99.70;;;;;;5051023;28;20447;-67
2021/06/26 06:58:29;;;;;;;7.83;3.97;;;21.20;99.70;;;;;;5051362;28;20955;-65
2021/06/26 07:00:55;;;;;;;9.40;4.50;;;21.90;99.70;;;;;;5051696;28;20440;-65
2021/06/26 07:03:22;;;;;;;8.50;4.77;;;22.20;99.70;;;;;;5049906;28;20475;-65
2021/06/26 07:05:49;;;;;;;9.57;4.90;;;22.30;99.70;;;;;;5050832;28;20297;-66
2021/06/26 07:08:17;;;;;;;8.50;4.60;;;22.20;99.70;;;;;;5051607;28;20201;-66
2021/06/26 07:10:44;;;;;;;10.57;4.43;;;22.60;99.70;;;;;;5051496;28;20443;-65
2021/06/26 07:13:11;;;;;;;7.80;4.03;;;23.10;99.70;;;;;;5051225;28;21190;-66
2021/06/26 07:15:37;;;;;;;8.93;4.30;;;23.10;99.70;;;;;;5051076;28;20451;-66
2021/06/26 07:18:04;;;;;;;7.40;3.90;;;22.80;99.70;;;;;;5051544;28;20447;-66
2021/06/26 07:20:31;;;;;;;9.90;4.60;;;23.20;99.70;;;;;;5051349;28;20801;-65
2021/06/26 07:22:58;;;;;;;8.00;4.40;;;23.00;99.70;;;;;;5051256;28;20525;-65
2021/06/26 07:25:26;;;;;;;8.37;4.67;;;22.60;99.70;;;;;;5059958;28;20454;-65
2021/06/26 07:27:52;;;;;;;10.63;4.40;;;22.50;99.70;;;;;;5070547;28;20442;-65
2021/06/26 07:30:20;;;;;;;9.03;4.37;;;22.30;99.70;;;;;;5067158;28;20451;-66
2021/06/26 07:32:46;;;;;;;9.33;4.50;;;21.90;99.70;;;;;;5070773;28;20482;-65
2021/06/26 07:35:14;;;;;;;11.20;4.30;;;21.80;99.70;;;;;;5070787;28;20719;-65
2021/06/26 07:37:41;;;;;;;8.27;4.30;;;22.10;99.70;;;;;;5070531;28;20485;-65
2021/06/26 07:40:09;;;;;;;10.23;4.40;;;21.90;99.70;;;;;;5061577;28;20448;-65
2021/06/26 07:42:37;;;;;;;8.57;4.37;;;22.20;99.70;;;;;;5050830;28;20471;-65
2021/06/26 07:45:04;;;;;;;11.90;4.73;;;22.00;99.70;;;;;;5051550;28;20451;-65
2021/06/26 07:47:31;;;;;;;11.67;5.00;;;22.00;99.70;;;;;;5050538;28;20444;-65
2021/06/26 07:49:58;;;;;;;9.20;4.60;;;22.10;99.70;;;;;;5058031;28;20974;-65
2021/06/26 07:52:25;;;;;;;11.80;4.80;;;21.90;99.70;;;;;;5063512;28;21009;-65
2021/06/26 07:54:51;;;;;;;11.87;4.90;;;21.80;99.70;;;;;;5069389;28;20443;-65
2021/06/26 07:57:18;;;;;;;11.50;4.80;;;22.00;99.70;;;;;;5070288;28;20462;-66
2021/06/26 07:59:46;;;;;;;12.50;5.50;;;21.60;99.70;;;;;;5069508;28;20451;-65
2021/06/26 08:02:13;;;;;;;10.87;4.63;;;21.60;99.70;;;;;;5069382;28;20474;-65
2021/06/26 08:04:39;;;;;;;12.00;4.27;;;21.60;99.70;;;;;;5068637;28;20450;-65
2021/06/26 08:07:06;;;;;;;10.17;4.50;;;21.70;99.70;;;;;;5070242;28;20446;-65
2021/06/26 08:09:33;;;;;;;8.10;4.10;;;21.70;99.70;;;;;;5070090;28;20443;-67
2021/06/26 08:12:00;;;;;;;9.00;4.50;;;21.80;99.70;;;;;;5070318;28;20471;-65
2021/06/26 08:14:26;;;;;;;8.70;4.30;;;21.60;99.70;;;;;;5070020;28;20443;-66
2021/06/26 08:16:54;;;;;;;9.53;4.43;;;21.60;99.70;;;;;;5070261;28;20443;-66
2021/06/26 08:19:21;;;;;;;8.63;4.63;;;21.60;99.70;;;;;;5070342;28;20450;-66
2021/06/26 08:21:48;;;;;;;8.60;3.80;;;22.00;99.70;;;;;;5070339;28;20447;-66
2021/06/26 08:24:15;;;;;;;11.37;4.97;;;22.40;99.70;;;;;;5069869;28;20522;-66
2021/06/26 08:26:42;;;;;;;8.10;4.20;;;22.40;99.70;;;;;;5070246;28;20818;-66
2021/06/26 08:29:08;;;;;;;11.50;4.27;;;22.50;99.70;;;;;;5070373;28;20462;-66
2021/06/26 08:31:35;;;;;;;7.23;3.70;;;22.60;99.70;;;;;;5070090;28;20443;-67
2021/06/26 08:34:03;;;;;;;8.30;4.50;;;22.80;99.70;;;;;;5069638;28;20853;-66
2021/06/26 08:36:30;;;;;;;8.83;4.30;;;22.50;99.70;;;;;;5069973;28;20784;-66
2021/06/26 08:38:56;;;;;;;9.70;4.47;;;22.20;99.70;;;;;;5070154;28;20447;-66
2021/06/26 08:41:25;;;;;;;7.90;4.03;;;22.10;99.70;;;;;;5069985;28;20446;-66
2021/06/26 08:43:52;;;;;;;6.70;4.10;;;22.10;99.70;;;;;;5069729;28;20446;-66
2021/06/26 08:46:20;;;;;;;8.70;4.33;;;22.10;99.70;;;;;;5069547;28;20469;-65
2021/06/26 08:48:47;;;;;;;8.00;3.70;;;22.20;99.70;;;;;;5069821;28;20541;-66
2021/06/26 08:51:15;;;;;;;9.50;4.47;;;22.20;99.70;;;;;;5064255;28;20478;-65
2021/06/26 08:53:42;;;;;;;7.07;3.73;;;22.30;99.70;;;;;;5069288;28;20486;-67
2021/06/26 08:56:09;;;;;;;8.00;4.20;;;22.30;99.70;;;;;;5069441;28;20846;-66
2021/06/26 08:58:35;;;;;;;8.47;3.80;;;22.30;99.70;;;;;;5069395;28;20446;-67
2021/06/26 09:01:02;;;;;;;8.87;4.10;;;22.50;99.70;;;;;;5069519;28;21033;-65
2021/06/26 09:03:29;;;;;;;6.60;3.30;;;22.70;99.70;;;;;;5068709;28;20540;-65
2021/06/26 09:06:03;;;;;;;7.53;3.43;;;22.90;99.70;;;;;;5069121;28;20447;-65
2021/06/26 09:08:31;;;;;;;8.30;3.90;;;22.60;99.70;;;;;;5069390;28;20446;-66
2021/06/26 09:10:58;;;;;;;7.07;3.33;;;22.50;99.70;;;;;;5069422;28;20853;-65
2021/06/26 09:13:26;;;;;;;6.57;3.10;;;22.80;99.70;;;;;;5069150;28;20478;-65
2021/06/26 09:16:05;;;;;;;6.57;3.57;;;22.90;99.70;;;;;;5068698;28;20943;-65
2021/06/26 09:18:41;;;;;;;10.80;3.67;;;22.60;99.70;;;;;;5069332;28;20512;-65
2021/06/26 09:21:19;;;;;;;6.70;3.60;;;22.40;99.70;;;;;;5068891;28;20470;-65
2021/06/26 09:23:59;;;;;;;8.73;4.00;;;22.50;99.70;;;;;;5071596;28;20467;-66
2021/06/26 09:26:26;;;;;;;7.93;3.97;;;22.80;99.70;;;;;;5053133;28;21061;-65
2021/06/26 09:28:53;;;;;;;8.27;3.80;;;23.00;99.70;;;;;;5054435;28;20823;-65
2021/06/26 09:31:21;;;;;;;7.87;3.93;;;23.00;99.70;;;;;;5053165;28;20446;-65
2021/06/26 09:33:56;;;;;;;10.30;4.17;;;23.00;99.70;;;;;;5052960;28;20841;-66
2021/06/26 09:36:26;;;;;;;5.60;3.20;;;23.10;99.70;;;;;;5053044;28;20470;-65
2021/06/26 09:39:00;;;;;;;6.57;3.30;;;23.30;99.70;;;;;;5053177;28;20526;-65
2021/06/26 09:41:27;;;;;;;8.37;4.20;;;23.50;99.70;;;;;;5073149;28;20458;-65
2021/06/26 09:43:54;;;;;;;7.87;3.80;;;23.40;99.70;;;;;;5072446;28;20468;-65
2021/06/26 09:46:22;;;;;;;5.57;3.37;;;23.70;99.70;;;;;;5052738;28;20457;-65
2021/06/26 09:48:54;;;;;;;7.23;3.70;;;23.90;99.70;;;;;;5052453;28;20458;-65
2021/06/26 09:51:23;;;;;;;7.90;3.70;;;23.80;99.50;;;;;;5071179;28;20911;-65
2021/06/26 09:53:57;;;;;;;6.63;3.40;;;23.70;99.70;;;;;;5071992;28;20478;-66
2021/06/26 09:56:24;;;;;;;7.27;3.80;;;24.20;98.60;;;;;;5072020;28;20844;-65
2021/06/26 09:58:52;;;;;;;6.27;3.17;;;24.10;99.70;;;;;;5072630;28;20204;-66
2021/06/26 10:01:20;;;;;;;7.40;3.90;;;24.60;98.10;;;;;;5072401;28;20192;-66
2021/06/26 10:03:48;;;;;;;5.90;3.00;;;25.10;99.70;;;;;;5072560;28;20315;-66
2021/06/26 10:06:17;;;;;;;5.00;3.07;;;25.50;94.70;;;;;;5070532;28;20207;-66
2021/06/26 10:08:45;;;;;;;6.13;3.70;;;26.30;93.20;;;;;;5062669;28;20197;-66
2021/06/26 10:11:13;;;;;;;6.78;3.97;;;25.70;92.40;;;;;;5071714;28;20226;-65
2021/06/26 10:13:41;;;;;;;6.00;3.25;;;25.50;96.10;;;;;;5071435;28;20322;-65
2021/06/26 10:16:08;;;;;;;6.67;3.50;;;25.10;94.90;;;;;;5052034;28;20731;-65
2021/06/26 10:18:35;;;;;;;4.37;2.80;;;25.30;93.70;;;;;;5052379;28;20662;-65
2021/06/26 10:21:03;;;;;;;6.40;3.03;;;25.10;92.50;;;;;;5072903;28;20567;-65
2021/06/26 10:23:35;;;;;;;5.80;3.40;;;25.20;96.90;;;;;;5072396;28;20216;-66
2021/06/26 10:26:03;;;;;;;5.10;2.90;;;25.00;94.50;;;;;;5052608;28;20220;-65
2021/06/26 10:28:31;;;;;;;5.53;2.93;;;24.50;95.70;;;;;;5052520;28;20447;-66
2021/06/26 10:30:59;;;;;;;6.20;2.73;;;24.20;95.60;;;;;;5065887;28;20872;-65
2021/06/26 10:33:27;;;;;;;5.97;3.23;;;24.20;94.90;;;;;;5072074;28;20489;-65
2021/06/26 10:35:56;;;;;;;6.20;2.80;;;23.80;97.50;;;;;;5054610;28;20454;-66
2021/06/26 10:38:23;;;;;;;6.20;3.33;;;24.10;94.20;;;;;;5052231;28;20450;-66
2021/06/26 10:40:52;;;;;;;6.30;3.20;;;24.30;94.40;;;;;;5053084;28;20554;-65
2021/06/26 10:43:24;;;;;;;6.37;3.13;;;24.30;99.20;;;;;;5048991;28;20459;-65
2021/06/26 10:45:54;;;;;;;5.13;3.03;;;24.20;94.80;;;;;;5066575;28;20453;-65
2021/06/26 10:48:23;;;;;;;5.20;3.43;;;24.20;99.70;;;;;;5072103;28;20454;-65
2021/06/26 10:50:53;;;;;;;4.33;2.90;;;24.20;96.90;;;;;;5072852;28;20481;-65
2021/06/26 10:53:29;;;;;;;5.90;3.13;;;23.90;97.00;;;;;;5071441;28;20482;-65
2021/06/26 10:56:02;;;;;;;5.97;3.40;;;23.70;99.60;;;;;;5056341;28;20451;-65
2021/06/26 10:58:29;;;;;;;5.40;3.10;;;23.60;99.70;;;;;;5051635;28;20447;-65
2021/06/26 11:00:59;;;;;;;5.33;2.80;;;23.70;96.20;;;;;;5051717;28;20447;-65
2021/06/26 11:03:30;;;;;;;7.90;3.27;;;23.80;97.30;;;;;;5051059;28;20843;-65
2021/06/26 11:06:00;;;;;;;5.90;3.43;;;23.80;98.30;;;;;;5051855;28;20461;-65
2021/06/26 11:08:27;;;;;;;6.73;3.50;;;23.60;98.20;;;;;;5053062;28;20459;-66
2021/06/26 11:10:55;;;;;;;6.93;3.53;;;23.30;98.10;;;;;;5055675;28;20818;-65
2021/06/26 11:13:23;;;;;;;5.93;3.20;;;23.20;98.60;;;;;;5071204;28;20565;-66
2021/06/26 11:15:50;;;;;;;6.90;3.07;;;23.30;99.70;;;;;;5070115;28;20827;-66
2021/06/26 11:18:20;;;;;;;6.53;3.13;;;23.10;99.70;;;;;;5071251;28;20450;-66
2021/06/26 11:20:47;;;;;;;6.13;3.23;;;23.10;99.70;;;;;;5053042;28;20458;-65
2021/06/26 11:23:17;;;;;;;6.90;3.07;;;23.20;99.70;;;;;;5051110;28;20472;-65
2021/06/26 11:25:45;;;;;;;6.30;3.10;;;23.30;99.30;;;;;;5067031;28;20443;-65
2021/06/26 11:28:13;;;;;;;4.97;2.80;;;23.30;99.70;;;;;;5071000;28;20525;-65
2021/06/26 11:30:44;;;;;;;6.10;3.10;;;23.30;98.10;;;;;;5054518;28;20455;-65
2021/06/26 11:33:11;;;;;;;7.40;3.07;;;23.20;98.80;;;;;;5051030;28;20467;-65
2021/06/26 11:35:41;;;;;;;6.37;3.10;;;23.00;99.70;;;;;;5066123;28;21029;-66
2021/06/26 11:38:15;;;;;;;5.30;2.73;;;22.90;99.70;;;;;;5070906;28;20549;-66
2021/06/26 11:40:43;;;;;;;5.60;3.23;;;23.20;98.70;;;;;;5069001;28;20446;-66
2021/06/26 11:43:11;;;;;;;6.93;3.40;;;23.20;98.50;;;;;;5069694;28;20955;-65
2021/06/26 11:45:40;;;;;;;4.40;2.80;;;23.10;98.00;;;;;;5054751;28;20452;-66
2021/06/26 11:48:10;;;;;;;4.17;2.53;;;23.30;99.70;;;;;;5050579;28;20455;-65
2021/06/26 11:50:39;;;;;;;5.67;3.00;;;23.40;99.20;;;;;;5068429;28;20469;-66
2021/06/26 11:53:08;;;;;;;4.43;2.43;;;23.80;98.70;;;;;;5070631;28;21390;-65
2021/06/26 11:55:40;;;;;;;6.37;3.23;;;23.70;99.70;;;;;;5052369;28;20479;-66
2021/06/26 11:58:07;;;;;;;6.20;3.47;;;23.50;99.70;;;;;;5050574;28;20497;-65
2021/06/26 12:00:34;;;;;;;6.17;3.20;;;23.50;99.70;;;;;;5051431;28;20447;-65
2021/06/26 12:03:00;;;;;;;6.53;3.67;;;23.40;98.10;;;;;;5050337;28;20890;-65
2021/06/26 12:05:27;;;;;;;7.80;3.50;;;23.70;97.80;;;;;;5064739;28;20453;-65
2021/06/26 12:08:04;;;;;;;6.10;3.03;;;23.80;98.00;;;;;;5070601;28;20442;-65
2021/06/26 12:10:31;;;;;;;7.00;3.30;;;23.60;98.80;;;;;;5051983;28;20458;-66
2021/06/26 12:12:59;;;;;;;5.23;2.73;;;23.40;99.00;;;;;;5057583;28;20486;-66
2021/06/26 12:15:26;;;;;;;7.63;3.10;;;23.10;99.70;;;;;;5057641;28;20487;-66
2021/06/26 12:18:02;;;;;;;6.10;2.80;;;23.30;99.70;;;;;;5050245;28;20456;-66
2021/06/26 12:20:35;;;;;;;7.20;3.43;;;23.40;99.70;;;;;;5051143;28;20889;-66
2021/06/26 12:23:08;;;;;;;5.93;2.93;;;23.70;99.70;;;;;;5054630;28;20524;-66
2021/06/26 12:25:37;;;;;;;7.80;3.63;;;23.80;97.10;;;;;;5060258;28;20822;-66
2021/06/26 12:28:07;;;;;;;4.70;2.80;;;23.70;99.70;;;;;;5051064;28;20436;-67
2021/06/26 12:30:34;;;;;;;6.40;3.10;;;23.70;99.50;;;;;;5066817;28;20831;-67
2021/06/26 12:33:06;;;;;;;4.40;2.80;;;23.60;99.20;;;;;;5068865;28;20462;-67
2021/06/26 12:35:33;;;;;;;7.37;3.10;;;23.80;96.80;;;;;;5049598;28;20490;-68
2021/06/26 12:38:00;;;;;;;6.10;3.00;;;23.90;96.20;;;;;;5049518;28;20505;-67
2021/06/26 12:40:30;;;;;;;4.70;3.00;;;23.80;98.80;;;;;;5063123;28;20807;-67
2021/06/26 12:43:02;;;;;;;5.80;2.70;;;23.60;99.70;;;;;;5056681;28;20468;-67
2021/06/26 12:45:32;;;;;;;4.37;2.63;;;23.60;94.70;;;;;;5069649;28;20442;-67